TimeCDT,TemperatureF,Dew PointF,Humidity,Sea Level PressureIn,VisibilityMPH,Wind Direction,Wind SpeedMPH,Gust SpeedMPH,PrecipitationIn,Events,Conditions,WindDirDegrees,DateUTC
12:15 AM,32.0,24.8,75,30.29,10.0,SSE,11.5,-,N/A,,Overcast,160,2012-10-12 05:15:00
12:35 AM,32.0,24.8,75,30.29,10.0,SSE,11.5,-,N/A,,Overcast,150,2012-10-12 05:35:00
12:55 AM,33.8,26.6,75,30.28,10.0,SSE,11.5,17.3,N/A,,Overcast,160,2012-10-12 05:55:00
1:15 AM,33.8,24.8,70,30.28,10.0,SSE,10.4,-,N/A,,Overcast,150,2012-10-12 06:15:00
1:35 AM,35.6,24.8,65,30.27,10.0,SSE,12.7,19.6,N/A,,Overcast,150,2012-10-12 06:35:00
1:55 AM,35.6,24.8,65,30.26,10.0,SSE,15.0,18.4,N/A,,Overcast,160,2012-10-12 06:55:00
2:15 AM,35.6,24.8,65,30.25,10.0,SSE,13.8,19.6,N/A,,Overcast,160,2012-10-12 07:15:00
2:35 AM,35.6,24.8,65,30.24,10.0,SSE,15.0,19.6,N/A,,Overcast,160,2012-10-12 07:35:00
2:55 AM,35.6,24.8,65,30.22,10.0,South,16.1,21.9,N/A,,Overcast,170,2012-10-12 07:55:00
3:15 AM,35.6,23.0,60,30.21,10.0,SSE,19.6,24.2,N/A,,Overcast,160,2012-10-12 08:15:00
3:35 AM,35.6,23.0,60,30.19,10.0,South,20.7,25.3,N/A,,Overcast,170,2012-10-12 08:35:00
3:55 AM,33.8,23.0,65,30.18,10.0,South,18.4,26.5,N/A,,Mostly Cloudy,170,2012-10-12 08:55:00
4:15 AM,33.8,23.0,65,30.16,10.0,South,18.4,24.2,N/A,,Mostly Cloudy,170,2012-10-12 09:15:00
4:35 AM,33.8,23.0,65,30.17,10.0,South,12.7,18.4,N/A,,Mostly Cloudy,180,2012-10-12 09:35:00
4:55 AM,32.0,23.0,69,30.16,10.0,South,8.1,-,N/A,,Mostly Cloudy,170,2012-10-12 09:55:00
5:15 AM,32.0,23.0,69,30.15,10.0,South,9.2,-,N/A,,Partly Cloudy,180,2012-10-12 10:15:00
5:35 AM,32.0,23.0,69,30.15,10.0,South,9.2,-,N/A,,Clear,180,2012-10-12 10:35:00
5:55 AM,32.0,24.8,75,30.14,10.0,South,6.9,-,N/A,,Clear,180,2012-10-12 10:55:00
6:15 AM,32.0,24.8,75,30.12,10.0,South,11.5,18.4,N/A,,Clear,180,2012-10-12 11:15:00
6:35 AM,32.0,24.8,75,30.12,10.0,South,5.8,-,N/A,,Clear,190,2012-10-12 11:35:00
6:55 AM,32.0,24.8,75,30.11,10.0,South,10.4,-,N/A,,Clear,180,2012-10-12 11:55:00
7:15 AM,32.0,24.8,75,30.10,10.0,South,10.4,17.3,N/A,,Clear,180,2012-10-12 12:15:00
7:35 AM,32.0,24.8,75,30.09,10.0,South,13.8,19.6,N/A,,Clear,180,2012-10-12 12:35:00
7:55 AM,32.0,24.8,75,30.08,10.0,South,12.7,23.0,N/A,,Clear,180,2012-10-12 12:55:00
8:15 AM,32.0,24.8,75,30.08,10.0,South,12.7,18.4,N/A,,Clear,170,2012-10-12 13:15:00
8:35 AM,32.0,26.6,80,30.07,10.0,South,12.7,21.9,N/A,,Clear,170,2012-10-12 13:35:00
8:55 AM,33.8,26.6,75,30.06,10.0,South,9.2,19.6,N/A,,Clear,180,2012-10-12 13:55:00
9:15 AM,35.6,26.6,70,30.06,10.0,South,6.9,-,N/A,,Clear,190,2012-10-12 14:15:00
9:35 AM,37.4,26.6,65,30.04,10.0,South,17.3,23.0,N/A,,Clear,170,2012-10-12 14:35:00
9:55 AM,39.2,26.6,61,30.02,10.0,South,19.6,25.3,N/A,,Clear,170,2012-10-12 14:55:00
10:15 AM,39.2,26.6,61,30.00,10.0,South,23.0,31.1,N/A,,Clear,180,2012-10-12 15:15:00
10:35 AM,41.0,26.6,57,29.98,10.0,South,29.9,38.0,N/A,,Clear,180,2012-10-12 15:35:00
10:55 AM,44.6,26.6,49,29.97,10.0,South,24.2,40.3,N/A,,Clear,170,2012-10-12 15:55:00
11:15 AM,44.6,26.6,49,29.96,10.0,South,28.8,34.5,N/A,,Clear,170,2012-10-12 16:15:00
11:35 AM,46.4,28.4,50,29.96,10.0,South,23.0,32.2,N/A,,Clear,180,2012-10-12 16:35:00
12:15 PM,48.2,26.6,43,29.94,10.0,South,23.0,32.2,N/A,,Clear,190,2012-10-12 17:15:00
12:35 PM,48.2,26.6,43,29.93,10.0,South,24.2,32.2,N/A,,Clear,190,2012-10-12 17:35:00
12:55 PM,50.0,26.6,40,29.91,10.0,South,23.0,33.4,N/A,,Clear,180,2012-10-12 17:55:00
1:35 PM,53.6,28.4,38,29.88,10.0,SSW,20.7,27.6,N/A,,Clear,200,2012-10-12 18:35:00
2:15 PM,55.4,28.4,36,29.84,10.0,South,20.7,31.1,N/A,,Clear,180,2012-10-12 19:15:00
2:35 PM,55.4,28.4,36,29.83,10.0,South,23.0,29.9,N/A,,Clear,170,2012-10-12 19:35:00
2:55 PM,55.4,28.4,36,29.82,10.0,South,23.0,27.6,N/A,,Clear,180,2012-10-12 19:55:00
3:35 PM,57.2,28.4,33,29.79,10.0,South,24.2,28.8,N/A,,Clear,180,2012-10-12 20:35:00
3:55 PM,59.0,30.2,34,29.79,10.0,South,18.4,27.6,N/A,,Clear,190,2012-10-12 20:55:00
4:15 PM,59.0,30.2,34,29.77,10.0,South,18.4,24.2,N/A,,Clear,180,2012-10-12 21:15:00
4:35 PM,59.0,30.2,34,29.77,10.0,SSW,17.3,25.3,N/A,,Clear,200,2012-10-12 21:35:00
5:15 PM,60.8,30.2,31,29.75,10.0,South,17.3,24.2,N/A,,Clear,190,2012-10-12 22:15:00
5:35 PM,59.0,30.2,34,29.74,10.0,South,17.3,21.9,N/A,,Clear,190,2012-10-12 22:35:00
6:15 PM,59.0,32.0,36,29.72,10.0,South,11.5,-,N/A,,Clear,170,2012-10-12 23:15:00
6:35 PM,57.2,30.2,36,29.72,10.0,South,10.4,-,N/A,,Clear,180,2012-10-12 23:35:00
6:55 PM,55.4,32.0,41,29.72,10.0,South,6.9,-,N/A,,Clear,170,2012-10-12 23:55:00
7:15 PM,51.8,30.2,44,29.71,10.0,SSE,6.9,-,N/A,,Clear,160,2012-10-13 00:15:00
7:55 PM,44.6,30.2,57,29.71,9.0,NE,3.5,-,N/A,,Clear,50,2012-10-13 00:55:00
8:15 PM,44.6,30.2,57,29.70,10.0,South,6.9,-,N/A,,Clear,170,2012-10-13 01:15:00
8:35 PM,50.0,32.0,50,29.70,10.0,South,11.5,-,N/A,,Clear,180,2012-10-13 01:35:00
9:15 PM,50.0,32.0,50,29.68,10.0,South,13.8,-,N/A,,Clear,180,2012-10-13 02:15:00
9:35 PM,50.0,30.2,47,29.67,10.0,South,17.3,-,N/A,,Clear,180,2012-10-13 02:35:00
9:55 PM,50.0,30.2,47,29.67,10.0,South,17.3,21.9,N/A,,Clear,180,2012-10-13 02:55:00
10:15 PM,50.0,30.2,47,29.66,10.0,South,20.7,24.2,N/A,,Clear,180,2012-10-13 03:15:00
10:35 PM,50.0,30.2,47,29.66,10.0,South,18.4,-,N/A,,Clear,180,2012-10-13 03:35:00
10:55 PM,48.2,30.2,50,29.67,10.0,WSW,8.1,-,N/A,,Clear,250,2012-10-13 03:55:00
11:15 PM,46.4,30.2,53,29.67,10.0,SSW,8.1,-,N/A,,Clear,210,2012-10-13 04:15:00
11:35 PM,48.2,30.2,50,29.66,10.0,SSW,9.2,-,N/A,,Clear,200,2012-10-13 04:35:00
11:55 PM,46.4,30.2,53,29.66,10.0,West,5.8,-,N/A,,Clear,260,2012-10-13 04:55:00